createdAt,value
2023-05-01T00:21:34.795Z,4.10
2023-05-01T00:40:16.046Z,4.20
2023-05-01T00:58:51.388Z,3.50
2023-05-01T01:17:30.848Z,4.10
2023-05-01T01:36:09.486Z,2.90
2023-05-01T01:54:48.449Z,3.30
2023-05-01T02:13:26.977Z,4.00
2023-05-01T02:32:05.490Z,4.10
2023-05-01T02:50:43.407Z,3.90
2023-05-01T03:09:23.185Z,2.80
2023-05-01T03:28:03.138Z,3.30
2023-05-01T03:46:38.909Z,3.70
2023-05-01T04:05:17.367Z,3.50
2023-05-01T04:23:57.554Z,4.10
2023-05-01T04:42:37.539Z,4.70
2023-05-01T05:01:17.272Z,4.40
2023-05-01T05:57:16.631Z,5.10
2023-05-01T06:15:57.121Z,4.00
2023-05-01T06:34:39.510Z,3.20
2023-05-01T06:53:21.158Z,4.20
2023-05-01T07:12:00.197Z,3.40
2023-05-01T07:49:22.914Z,3.20
2023-05-01T08:26:44.304Z,2.40
2023-05-01T08:45:23.106Z,2.10
2023-05-01T09:04:05.981Z,2.10
2023-05-01T09:22:47.885Z,2.10
2023-05-01T09:41:29.193Z,2.30
2023-05-01T10:18:53.917Z,2.50
2023-05-01T10:37:39.685Z,1.90
2023-05-01T11:15:00.043Z,1.70
2023-05-01T11:33:46.735Z,1.60
2023-05-01T11:52:21.148Z,1.50
2023-05-01T12:11:05.110Z,1.20
2023-05-01T12:29:54.649Z,1.40
2023-05-01T12:48:34.588Z,2.10
2023-05-01T13:07:15.104Z,1.50
2023-05-01T13:25:59.360Z,1.60
2023-05-01T14:21:48.971Z,1.50
2023-05-01T14:58:58.986Z,2.20
2023-05-01T15:17:33.829Z,2.20
2023-05-01T15:36:09.916Z,1.60
2023-05-01T16:13:21.133Z,3.40
2023-05-01T16:32:04.854Z,2.50
2023-05-01T16:50:36.004Z,1.90
2023-05-01T17:09:13.419Z,2.00
2023-05-01T17:27:45.055Z,2.30
2023-05-01T17:46:24.683Z,3.30
2023-05-01T18:04:59.315Z,1.60
2023-05-01T18:23:39.955Z,2.50
2023-05-01T18:42:14.992Z,3.30
2023-05-01T19:00:52.911Z,3.20
2023-05-01T19:38:08.620Z,4.60
2023-05-01T20:15:24.375Z,5.20
2023-05-01T20:34:02.426Z,4.00
2023-05-01T20:52:41.890Z,3.40
2023-05-01T21:11:25.601Z,4.30
2023-05-01T21:29:58.137Z,5.10
2023-05-01T21:48:39.022Z,5.30
2023-05-01T22:07:15.206Z,5.60
2023-05-01T22:25:53.880Z,9.50
2023-05-01T22:44:32.743Z,5.90
2023-05-01T23:03:11.084Z,5.90
2023-05-01T23:21:49.855Z,5.20
2023-05-01T23:40:29.662Z,4.80
2023-05-01T23:59:11.090Z,5.90
